createdAt,value
2024-01-22T00:00:33.568Z,69.95
2024-01-22T00:03:41.515Z,88.03
2024-01-22T00:06:49.700Z,58.75
2024-01-22T00:09:57.685Z,44.63
2024-01-22T00:13:07.070Z,16.42
2024-01-22T00:16:16.388Z,21.60
2024-01-22T00:19:24.466Z,31.60
2024-01-22T00:22:32.517Z,51.42
2024-01-22T00:25:40.723Z,19.08
2024-01-22T00:28:50.121Z,23.65
2024-01-22T00:31:57.920Z,37.38
2024-01-22T00:35:06.912Z,45.13
2024-01-22T00:38:15.161Z,22.80
2024-01-22T00:41:22.993Z,24.00
2024-01-22T00:44:32.478Z,18.65
2024-01-22T00:47:40.732Z,13.23
2024-01-22T00:50:48.614Z,11.95
2024-01-22T00:53:56.936Z,35.05
2024-01-22T00:57:05.011Z,34.10
2024-01-22T01:00:16.308Z,27.80
2024-01-22T01:03:24.645Z,35.83
2024-01-22T01:06:32.604Z,34.47
2024-01-22T01:09:40.799Z,23.33
2024-01-22T01:12:49.069Z,26.80
2024-01-22T01:15:58.222Z,4.28
2024-01-22T01:19:06.478Z,9.20
2024-01-22T01:22:14.513Z,5.82
2024-01-22T01:25:22.650Z,3.90
2024-01-22T01:28:30.821Z,25.08
2024-01-22T01:31:40.145Z,54.90
2024-01-22T01:34:47.984Z,45.10
2024-01-22T01:37:56.059Z,82.07
2024-01-22T01:41:05.890Z,48.60
2024-01-22T01:44:13.934Z,46.38
2024-01-22T01:47:23.458Z,44.83
2024-01-22T01:50:31.708Z,51.22
2024-01-22T01:53:40.317Z,48.30
2024-01-22T01:56:48.403Z,95.18
2024-01-22T01:59:56.617Z,32.80
2024-01-22T02:03:07.400Z,35.58
2024-01-22T02:06:15.484Z,9.02
2024-01-22T02:09:23.739Z,7.18
2024-01-22T02:12:31.948Z,7.93
2024-01-22T02:15:39.990Z,19.13
2024-01-22T02:18:49.734Z,14.88
2024-01-22T02:21:57.751Z,35.47
2024-01-22T02:25:08.397Z,15.45
2024-01-22T02:28:16.452Z,21.45
2024-01-22T02:31:24.287Z,26.10
2024-01-22T02:34:32.424Z,45.85
2024-01-22T02:37:40.688Z,61.38
2024-01-22T02:40:50.328Z,34.53
2024-01-22T02:43:58.578Z,15.73
2024-01-22T02:47:07.113Z,36.08
2024-01-22T02:50:15.176Z,48.65
2024-01-22T02:53:23.081Z,38.20
2024-01-22T02:56:32.445Z,52.20
2024-01-22T02:59:43.386Z,44.90
2024-01-22T03:02:52.106Z,26.40
2024-01-22T03:06:00.466Z,76.75
2024-01-22T03:09:10.355Z,48.60
2024-01-22T03:12:20.065Z,98.35
2024-01-22T03:15:28.093Z,71.07
2024-01-22T03:18:36.477Z,80.28
2024-01-22T03:21:44.484Z,76.15
2024-01-22T03:24:52.372Z,64.60
2024-01-22T03:28:01.794Z,70.32
2024-01-22T03:31:09.948Z,59.30
2024-01-22T03:34:18.290Z,51.13
2024-01-22T03:37:26.224Z,53.67
2024-01-22T03:40:34.388Z,73.40
2024-01-22T03:43:44.526Z,18.58
2024-01-22T03:46:52.393Z,48.67
2024-01-22T03:50:00.536Z,41.95
2024-01-22T03:53:08.485Z,48.03
2024-01-22T03:56:16.635Z,67.32
2024-01-22T03:59:26.443Z,61.63
2024-01-22T04:02:35.708Z,63.50
2024-01-22T04:05:44.301Z,36.55
2024-01-22T04:08:52.697Z,39.08
2024-01-22T04:12:00.770Z,52.03
2024-01-22T04:15:10.897Z,26.90
2024-01-22T04:18:18.981Z,70.40
2024-01-22T04:21:26.829Z,41.17
2024-01-22T04:24:38.228Z,47.20
2024-01-22T04:27:46.605Z,47.90
2024-01-22T04:30:56.224Z,16.25
2024-01-22T04:34:04.636Z,6.22
2024-01-22T04:37:12.945Z,12.07
2024-01-22T04:40:21.341Z,5.25
2024-01-22T04:43:29.440Z,4.80
2024-01-22T04:46:39.050Z,8.73
2024-01-22T04:49:48.109Z,3.75
2024-01-22T04:52:56.195Z,16.85
2024-01-22T04:56:04.328Z,20.58
2024-01-22T04:59:12.475Z,24.67
2024-01-22T05:02:28.328Z,8.35
2024-01-22T05:05:36.803Z,12.90
2024-01-22T05:08:44.695Z,13.77
2024-01-22T05:11:53.384Z,23.02
2024-01-22T05:15:01.704Z,10.05
2024-01-22T05:18:11.141Z,20.95
2024-01-22T05:21:22.590Z,18.17
2024-01-22T05:24:30.521Z,8.98
2024-01-22T05:27:38.788Z,20.50
2024-01-22T05:30:47.000Z,28.83
2024-01-22T05:33:56.394Z,20.55
2024-01-22T05:37:04.496Z,26.73
2024-01-22T05:40:14.812Z,28.27
2024-01-22T05:43:22.969Z,41.92
2024-01-22T05:46:31.279Z,44.45
2024-01-22T05:49:40.572Z,35.20
2024-01-22T05:52:48.624Z,31.85
2024-01-22T05:55:56.688Z,40.25
2024-01-22T05:59:04.748Z,39.03
2024-01-22T06:02:12.809Z,23.58
2024-01-22T06:05:22.356Z,28.25
2024-01-22T06:08:30.115Z,43.30
2024-01-22T06:11:38.294Z,49.25
2024-01-22T06:14:46.511Z,36.80
2024-01-22T06:17:54.843Z,43.15
2024-01-22T06:21:05.184Z,57.97
2024-01-22T06:24:13.476Z,63.15
2024-01-22T06:27:22.876Z,57.20
2024-01-22T06:30:31.115Z,42.42
2024-01-22T06:33:39.319Z,70.57
2024-01-22T06:36:48.626Z,119.57
2024-01-22T06:40:00.065Z,112.18
2024-01-22T06:43:08.478Z,82.63
2024-01-22T06:46:16.283Z,108.85
2024-01-22T06:49:25.312Z,102.50
2024-01-22T06:52:34.855Z,107.90
2024-01-22T06:55:42.868Z,133.63
2024-01-22T06:58:50.943Z,92.60
2024-01-22T07:02:00.032Z,128.38
2024-01-22T07:05:08.872Z,106.47
2024-01-22T07:08:18.758Z,78.43
2024-01-22T07:11:26.754Z,124.70
2024-01-22T07:14:34.928Z,128.25
2024-01-22T07:17:42.925Z,120.18
2024-01-22T07:20:51.164Z,97.30
2024-01-22T07:24:00.974Z,86.75
2024-01-22T07:27:08.891Z,60.28
2024-01-22T07:30:17.198Z,51.50
2024-01-22T07:33:25.495Z,121.22
2024-01-22T07:36:33.792Z,103.05
2024-01-22T07:39:43.063Z,146.32
2024-01-22T07:42:51.260Z,142.82
2024-01-22T07:46:00.953Z,155.60
2024-01-22T07:49:09.616Z,177.40
2024-01-22T07:52:17.771Z,186.60
2024-01-22T07:55:27.068Z,196.13
2024-01-22T07:58:35.281Z,244.23
2024-01-22T08:01:43.109Z,541.72
2024-01-22T08:04:51.828Z,695.38
2024-01-22T08:07:59.652Z,282.92
2024-01-22T08:11:09.160Z,361.92
2024-01-22T08:14:17.258Z,373.00
2024-01-22T08:17:25.347Z,89.90
2024-01-22T08:20:36.166Z,39.63
2024-01-22T08:23:44.765Z,21.73
2024-01-22T08:26:54.443Z,21.73
2024-01-22T08:30:03.104Z,21.00
2024-01-22T08:33:11.330Z,8.52
2024-01-22T08:36:19.776Z,9.57
2024-01-22T08:39:27.799Z,8.50
2024-01-22T08:42:37.204Z,8.07
2024-01-22T08:45:47.642Z,21.30
2024-01-22T08:48:55.453Z,73.90
2024-01-22T08:52:04.462Z,40.33
2024-01-22T08:55:12.172Z,62.22
2024-01-22T08:58:22.262Z,70.72
2024-01-22T09:01:30.562Z,124.35
2024-01-22T09:04:38.965Z,257.25
2024-01-22T09:07:47.693Z,315.65
2024-01-22T09:10:55.683Z,308.20
2024-01-22T09:14:06.180Z,388.25
2024-01-22T09:17:14.057Z,352.25
2024-01-22T09:20:22.207Z,240.75
2024-01-22T09:23:30.295Z,193.68
2024-01-22T09:26:38.674Z,185.95
2024-01-22T09:29:48.157Z,215.50
2024-01-22T09:32:59.143Z,182.25
2024-01-22T09:36:08.657Z,187.65
2024-01-22T09:39:17.131Z,165.25
2024-01-22T09:42:25.737Z,179.73
2024-01-22T09:45:35.696Z,157.13
2024-01-22T09:48:44.604Z,131.77
2024-01-22T09:51:52.877Z,86.93
2024-01-22T09:55:00.776Z,56.80
2024-01-22T09:58:10.127Z,90.30
2024-01-22T10:01:19.324Z,127.53
2024-01-22T10:04:27.883Z,99.00
2024-01-22T10:07:36.260Z,115.15
2024-01-22T10:10:44.541Z,135.95
2024-01-22T10:13:54.016Z,163.27
2024-01-22T10:17:15.970Z,211.10
2024-01-22T10:20:24.424Z,327.38
2024-01-22T10:23:32.981Z,319.02
2024-01-22T10:26:40.971Z,179.15
2024-01-22T10:29:49.019Z,109.72
2024-01-22T10:33:10.703Z,103.63
2024-01-22T10:36:20.194Z,142.93
2024-01-22T10:39:28.320Z,167.27
2024-01-22T10:42:36.453Z,25.35
2024-01-22T10:45:45.377Z,83.75
2024-01-22T10:48:56.165Z,177.27
2024-01-22T10:52:05.192Z,133.73
2024-01-22T10:55:13.177Z,69.95
2024-01-22T10:58:23.420Z,34.25
2024-01-22T11:01:31.645Z,25.00
2024-01-22T11:04:46.929Z,11.38
2024-01-22T11:07:54.856Z,14.48
2024-01-22T11:11:03.001Z,11.88
2024-01-22T11:14:11.134Z,18.50
2024-01-22T11:17:20.962Z,28.60
2024-01-22T11:20:30.652Z,25.92
2024-01-22T11:23:38.877Z,24.70
2024-01-22T11:27:03.003Z,31.75
2024-01-22T11:30:30.951Z,15.25
2024-01-22T11:33:39.265Z,18.98
2024-01-22T11:36:57.553Z,6.35
2024-01-22T11:40:08.859Z,3.00
2024-01-22T11:43:18.432Z,1.63
2024-01-22T11:46:26.700Z,1.50
2024-01-22T11:49:35.471Z,3.20
2024-01-22T11:52:45.286Z,2.67
2024-01-22T11:56:01.981Z,2.65
2024-01-22T11:59:10.250Z,2.05
2024-01-22T12:02:18.569Z,1.73
2024-01-22T12:05:26.555Z,2.35
2024-01-22T12:08:36.581Z,1.30
2024-01-22T12:11:52.339Z,2.03
2024-01-22T12:15:02.162Z,2.17
2024-01-22T12:18:10.363Z,3.40
2024-01-22T12:21:18.388Z,2.45
2024-01-22T12:24:27.909Z,2.35
2024-01-22T12:27:36.368Z,1.67
2024-01-22T12:30:44.910Z,2.05
2024-01-22T12:33:54.464Z,2.60
2024-01-22T12:37:14.100Z,1.65
2024-01-22T12:40:24.741Z,2.70
2024-01-22T12:43:32.663Z,2.55
2024-01-22T12:46:40.522Z,2.22
2024-01-22T12:49:49.425Z,2.20
2024-01-22T12:52:58.105Z,3.83
2024-01-22T12:56:08.081Z,1.40
2024-01-22T12:59:17.364Z,2.55
2024-01-22T13:02:25.906Z,2.47
2024-01-22T13:05:36.917Z,5.78
2024-01-22T13:08:46.396Z,5.70
2024-01-22T13:11:55.862Z,9.18
2024-01-22T13:15:03.887Z,4.40
2024-01-22T13:18:11.835Z,7.95
2024-01-22T13:21:19.929Z,8.35
2024-01-22T13:24:30.939Z,6.63
2024-01-22T13:27:41.187Z,3.67
2024-01-22T13:30:50.017Z,4.95
2024-01-22T13:33:58.812Z,8.02
2024-01-22T13:37:07.238Z,2.80
2024-01-22T13:40:15.136Z,2.47
2024-01-22T13:43:24.658Z,7.90
2024-01-22T13:46:33.699Z,8.43
2024-01-22T13:49:41.804Z,10.48
2024-01-22T13:52:50.226Z,19.80
2024-01-22T13:55:58.163Z,21.70
2024-01-22T13:59:08.956Z,8.20
2024-01-22T14:02:17.020Z,26.77
2024-01-22T14:05:25.315Z,26.77
2024-01-22T14:08:33.355Z,56.17
2024-01-22T14:11:41.501Z,102.85
2024-01-22T14:14:51.478Z,175.52
2024-01-22T14:17:59.526Z,178.57
2024-01-22T14:21:08.147Z,138.43
2024-01-22T14:24:16.222Z,112.60
2024-01-22T14:27:24.178Z,100.35
2024-01-22T14:30:33.742Z,91.85
2024-01-22T14:33:42.142Z,110.28
2024-01-22T14:36:51.490Z,118.80
2024-01-22T14:39:59.629Z,94.05
2024-01-22T14:43:07.703Z,62.22
2024-01-22T14:46:18.148Z,110.85
2024-01-22T14:49:26.190Z,93.30
2024-01-22T14:52:34.203Z,93.47
2024-01-22T14:55:42.100Z,50.22
2024-01-22T14:58:50.257Z,66.32
2024-01-22T15:01:59.766Z,60.15
2024-01-22T15:05:08.709Z,63.05
2024-01-22T15:08:16.697Z,62.45
2024-01-22T15:11:24.798Z,80.47
2024-01-22T15:14:33.038Z,48.85
2024-01-22T15:17:42.821Z,52.95
2024-01-22T15:20:51.095Z,69.90
2024-01-22T15:23:59.768Z,66.50
2024-01-22T15:27:08.452Z,52.13
2024-01-22T15:30:16.927Z,18.92
2024-01-22T15:33:26.909Z,8.55
2024-01-22T15:36:35.247Z,17.38
2024-01-22T15:39:45.922Z,43.78
2024-01-22T15:42:55.606Z,9.10
2024-01-22T15:46:03.955Z,19.17
2024-01-22T15:49:13.949Z,25.90
2024-01-22T15:52:22.076Z,32.47
2024-01-22T15:55:30.147Z,54.78
2024-01-22T15:58:38.299Z,71.07
2024-01-22T16:01:46.736Z,45.65
2024-01-22T16:04:57.363Z,56.85
2024-01-22T16:08:06.292Z,81.38
2024-01-22T16:11:14.420Z,54.03
2024-01-22T16:14:22.480Z,48.95
2024-01-22T16:17:31.024Z,49.15
2024-01-22T16:20:41.827Z,75.40
2024-01-22T16:23:50.387Z,53.83
2024-01-22T16:26:58.560Z,65.70
2024-01-22T16:30:09.149Z,57.03
2024-01-22T16:33:17.652Z,15.35
2024-01-22T16:36:27.321Z,56.33
2024-01-22T16:39:39.268Z,53.60
2024-01-22T16:42:47.726Z,45.63
2024-01-22T16:45:55.718Z,54.22
2024-01-22T16:49:04.780Z,43.42
2024-01-22T16:52:14.219Z,103.65
2024-01-22T16:55:22.803Z,122.35
2024-01-22T16:58:31.114Z,170.93
2024-01-22T17:01:39.446Z,124.15
2024-01-22T17:04:47.886Z,61.65
2024-01-22T17:07:57.160Z,33.58
2024-01-22T17:11:07.706Z,38.25
2024-01-22T17:14:15.564Z,27.50
2024-01-22T17:17:25.154Z,22.27
2024-01-22T17:20:36.262Z,7.53
2024-01-22T17:23:47.206Z,8.13
2024-01-22T17:26:56.492Z,3.80
2024-01-22T17:30:05.185Z,9.30
2024-01-22T17:33:16.139Z,6.95
2024-01-22T17:36:25.303Z,4.53
2024-01-22T17:39:35.186Z,6.38
2024-01-22T17:42:43.374Z,6.82
2024-01-22T17:45:51.505Z,6.50
2024-01-22T17:48:59.887Z,7.72
2024-01-22T17:52:08.253Z,4.35
2024-01-22T17:55:19.021Z,5.22
2024-01-22T17:58:27.154Z,6.45
2024-01-22T18:01:35.312Z,6.18
2024-01-22T18:04:43.460Z,5.30
2024-01-22T18:07:51.768Z,5.45
2024-01-22T18:11:01.083Z,4.63
2024-01-22T18:14:09.048Z,7.70
2024-01-22T18:17:17.123Z,4.97
2024-01-22T18:20:24.871Z,4.60
2024-01-22T18:23:33.565Z,7.22
2024-01-22T18:26:45.999Z,5.80
2024-01-22T18:29:54.685Z,4.65
2024-01-22T18:33:02.773Z,5.32
2024-01-22T18:36:11.136Z,5.03
2024-01-22T18:39:19.361Z,4.70
2024-01-22T18:42:28.747Z,7.97
2024-01-22T18:45:37.020Z,7.65
2024-01-22T18:48:45.155Z,5.80
2024-01-22T18:51:53.182Z,6.03
2024-01-22T18:55:01.408Z,4.68
2024-01-22T18:58:10.874Z,4.15
2024-01-22T19:01:19.063Z,4.90
2024-01-22T19:04:27.175Z,5.60
2024-01-22T19:07:35.310Z,4.72
2024-01-22T19:10:43.414Z,5.75
2024-01-22T19:13:53.075Z,6.00
2024-01-22T19:17:02.902Z,3.25
2024-01-22T19:20:12.362Z,4.15
2024-01-22T19:23:20.637Z,7.70
2024-01-22T19:26:30.025Z,5.55
2024-01-22T19:29:40.923Z,4.55
2024-01-22T19:32:49.267Z,8.18
2024-01-22T19:35:57.255Z,5.97
2024-01-22T19:39:05.752Z,8.32
2024-01-22T19:42:13.903Z,5.78
2024-01-22T19:45:23.452Z,6.53
2024-01-22T19:48:32.902Z,8.27
2024-01-22T19:51:41.127Z,4.53
2024-01-22T19:54:49.191Z,8.75
2024-01-22T19:57:57.668Z,6.28
2024-01-22T20:01:07.357Z,4.63
2024-01-22T20:04:15.560Z,6.80
2024-01-22T20:07:23.576Z,17.38
2024-01-22T20:10:31.432Z,7.53
2024-01-22T20:13:39.423Z,4.05
2024-01-22T20:16:49.040Z,6.88
2024-01-22T20:19:57.242Z,9.20
2024-01-22T20:23:05.618Z,5.25
2024-01-22T20:26:13.557Z,6.80
2024-01-22T20:29:23.982Z,10.48
2024-01-22T20:32:34.452Z,5.53
2024-01-22T20:35:43.829Z,6.50
2024-01-22T20:38:53.946Z,7.07
2024-01-22T20:42:03.625Z,6.57
2024-01-22T20:48:22.588Z,5.68
2024-01-22T20:51:31.045Z,7.22
2024-01-22T20:54:39.368Z,4.28
2024-01-22T20:57:47.748Z,8.10
2024-01-22T21:00:56.114Z,7.03
2024-01-22T21:04:06.019Z,7.53
2024-01-22T21:07:14.856Z,11.32
2024-01-22T21:10:23.234Z,6.38
2024-01-22T21:13:32.009Z,8.65
2024-01-22T21:16:40.207Z,5.93
2024-01-22T21:19:49.914Z,5.28
2024-01-22T21:22:57.879Z,5.60
2024-01-22T21:26:06.120Z,118.20
2024-01-22T21:29:14.089Z,152.45
2024-01-22T21:32:21.854Z,130.70
2024-01-22T21:35:31.191Z,89.10
2024-01-22T21:38:39.216Z,54.80
2024-01-22T21:41:48.098Z,20.27
2024-01-22T21:44:55.906Z,62.78
2024-01-22T21:48:04.364Z,46.03
2024-01-22T21:51:14.415Z,5.45
2024-01-22T21:54:22.631Z,8.98
2024-01-22T21:57:31.094Z,6.10
2024-01-22T22:00:42.326Z,6.32
2024-01-22T22:03:50.634Z,7.47
2024-01-22T22:07:00.423Z,7.60
2024-01-22T22:10:09.809Z,9.43
2024-01-22T22:13:18.418Z,4.20
2024-01-22T22:16:28.090Z,4.35
2024-01-22T22:19:37.355Z,4.90
2024-01-22T22:22:47.377Z,4.15
2024-01-22T22:25:55.688Z,8.13
2024-01-22T22:29:03.989Z,7.47
2024-01-22T22:32:12.131Z,5.03
2024-01-22T22:35:20.246Z,5.78
2024-01-22T22:38:29.427Z,6.35
2024-01-22T22:41:38.238Z,6.50
2024-01-22T22:44:46.479Z,5.28
2024-01-22T22:47:54.627Z,5.03
2024-01-22T22:51:03.520Z,5.55
2024-01-22T22:54:12.835Z,6.55
2024-01-22T22:57:20.910Z,6.65
2024-01-22T23:00:28.957Z,6.72
2024-01-22T23:03:37.237Z,10.20
2024-01-22T23:06:45.310Z,3.47
2024-01-22T23:09:55.896Z,5.45
2024-01-22T23:13:04.435Z,8.05
2024-01-22T23:16:12.674Z,6.15
2024-01-22T23:19:20.894Z,6.88
2024-01-22T23:22:28.940Z,6.72
2024-01-22T23:25:38.558Z,7.68
2024-01-22T23:28:47.309Z,10.07
2024-01-22T23:31:55.688Z,7.75
2024-01-22T23:35:03.670Z,6.18
2024-01-22T23:38:12.302Z,6.10
2024-01-22T23:41:22.899Z,6.72
2024-01-22T23:44:31.194Z,6.40
2024-01-22T23:47:39.307Z,3.47
2024-01-22T23:50:47.472Z,5.78
2024-01-22T23:53:55.856Z,5.57
2024-01-22T23:57:06.006Z,4.35
